Henrietta, Texas
Current Conditions -  °F | °C
As of 10:15 AM on Saturday 20 Dec 2014 (Local Time) from KCWC Reporting Station
Haze Haze  
Wind Chill: 40°   Ceiling: 2000
Heat Index: 43°   Visibility: 5mi
Dew Point: 40°   Wind: 5mph
Humidity: 88%   Direction: 150°SSE
Pressure: 30.27"   Gusts: NA
Location:  33.82°N, 98.2°W
Report Text: KCWC 201615Z AUTO 15004KT 5SM BR SCT015 OVC020 06/04 A3027 RMK AO2 T00620044
Loading
Personal Weather Stations






























Interactive Weather Map New forecast layout! Learn more

10-Day Weather Forecast

Advertisements
Track Severe Weather on mobile